createdAt,value
2023-02-16T00:26:19.591Z,0.40
2023-02-16T01:36:28.421Z,1.40
2023-02-16T01:39:50.242Z,1.42
2023-02-16T01:42:51.072Z,1.02
2023-02-16T01:48:20.713Z,1.15
2023-02-16T01:51:16.413Z,0.98
2023-02-16T01:54:31.947Z,1.10
2023-02-16T02:00:23.642Z,1.60
2023-02-16T02:03:22.867Z,1.33
2023-02-16T02:06:13.784Z,1.50
2023-02-16T02:09:32.131Z,2.10
2023-02-16T02:12:29.846Z,1.73
2023-02-16T02:15:07.976Z,1.60
2023-02-16T02:17:48.478Z,1.50
2023-02-16T02:20:57.275Z,1.50
2023-02-16T02:29:23.138Z,1.30
2023-02-16T02:38:57.321Z,1.83
2023-02-16T02:42:17.805Z,2.63
2023-02-16T02:45:25.940Z,2.33
2023-02-16T02:48:19.915Z,2.42
2023-02-16T02:51:32.877Z,2.55
2023-02-16T02:54:27.030Z,2.38
2023-02-16T02:57:46.985Z,2.30
2023-02-16T03:00:52.129Z,2.63
2023-02-16T03:03:33.758Z,2.63
2023-02-16T03:09:31.150Z,2.50
2023-02-16T03:12:50.908Z,2.33
2023-02-16T03:18:18.589Z,2.30
2023-02-16T03:21:13.549Z,2.17
2023-02-16T03:24:13.463Z,2.05
2023-02-16T03:27:09.547Z,1.90
2023-02-16T03:29:44.242Z,2.10
2023-02-16T03:32:18.827Z,2.63
2023-02-16T03:34:50.329Z,2.10
2023-02-16T03:37:34.387Z,1.77
2023-02-16T03:40:38.407Z,1.70
2023-02-16T03:43:20.058Z,1.88
2023-02-16T03:45:51.072Z,2.05
2023-02-16T03:51:29.702Z,2.20
2023-02-16T03:53:57.961Z,2.20
2023-02-16T03:56:26.577Z,1.45
2023-02-16T03:58:54.846Z,2.10
2023-02-16T04:01:46.999Z,2.55
2023-02-16T04:04:27.292Z,1.88
2023-02-16T04:06:55.574Z,1.65
2023-02-16T04:09:44.227Z,2.20
2023-02-16T04:12:42.942Z,1.73
2023-02-16T04:15:19.294Z,2.10
2023-02-16T04:17:53.817Z,2.17
2023-02-16T04:20:48.836Z,1.88
2023-02-16T04:23:20.225Z,1.92
2023-02-16T04:25:49.046Z,2.00
2023-02-16T04:28:18.968Z,1.90
2023-02-16T04:30:47.958Z,2.10
2023-02-16T04:33:16.764Z,2.03
2023-02-16T04:35:48.306Z,1.70
2023-02-16T04:41:00.501Z,1.98
2023-02-16T04:43:46.025Z,1.80
2023-02-16T04:46:22.487Z,2.00
2023-02-16T04:48:51.105Z,1.90
2023-02-16T04:51:22.320Z,1.90
2023-02-16T04:53:50.770Z,1.80
2023-02-16T04:56:31.336Z,1.92
2023-02-16T04:58:59.607Z,2.10
2023-02-16T05:01:49.292Z,1.80
2023-02-16T05:04:21.144Z,1.80
2023-02-16T05:06:53.203Z,1.90
2023-02-16T05:09:21.574Z,2.08
2023-02-16T05:12:11.207Z,2.15
2023-02-16T05:14:51.643Z,1.60
2023-02-16T05:17:30.969Z,1.50
2023-02-16T05:20:02.546Z,1.40
2023-02-16T05:25:20.801Z,1.40
2023-02-16T05:27:49.187Z,1.38
2023-02-16T05:30:22.982Z,1.40
2023-02-16T05:32:51.366Z,2.03
2023-02-16T05:35:19.707Z,2.38
2023-02-16T05:37:50.200Z,2.25
2023-02-16T05:40:21.633Z,2.47
2023-02-16T05:42:55.081Z,2.17
2023-02-16T05:45:23.457Z,1.88
2023-02-16T05:47:51.793Z,1.98
2023-02-16T05:50:20.336Z,2.00
2023-02-16T05:52:51.607Z,1.80
2023-02-16T05:55:22.832Z,2.20
2023-02-16T05:57:51.106Z,1.60
2023-02-16T06:00:22.335Z,1.60
2023-02-16T06:02:50.648Z,1.88
2023-02-16T06:05:21.552Z,1.58
2023-02-16T06:07:53.094Z,1.60
2023-02-16T06:10:22.012Z,1.48
2023-02-16T06:12:50.419Z,1.35
2023-02-16T06:15:21.621Z,1.45
2023-02-16T06:17:52.739Z,1.40
2023-02-16T06:20:21.461Z,1.52
2023-02-16T06:22:50.067Z,1.50
2023-02-16T06:25:21.662Z,1.52
2023-02-16T06:30:22.077Z,1.50
2023-02-16T06:32:50.742Z,1.70
2023-02-16T06:35:19.576Z,1.95
2023-02-16T06:37:52.287Z,2.00
2023-02-16T06:40:20.588Z,1.60
2023-02-16T06:42:51.920Z,1.75
2023-02-16T06:45:20.445Z,1.83
2023-02-16T06:47:48.868Z,1.42
2023-02-16T06:50:20.006Z,1.75
2023-02-16T06:52:48.275Z,1.95
2023-02-16T06:55:22.088Z,1.63
2023-02-16T06:57:50.373Z,1.58
2023-02-16T07:00:21.964Z,1.67
2023-02-16T07:05:20.938Z,1.50
2023-02-16T07:07:59.515Z,1.42
2023-02-16T07:10:34.711Z,1.75
2023-02-16T07:13:17.954Z,1.83
2023-02-16T07:16:03.106Z,1.45
2023-02-16T07:18:38.454Z,1.60
2023-02-16T07:21:12.564Z,1.50
2023-02-16T07:23:48.596Z,1.48
2023-02-16T07:26:19.768Z,1.85
2023-02-16T07:28:50.902Z,1.50
2023-02-16T07:31:22.219Z,1.90
2023-02-16T07:34:06.125Z,1.73
2023-02-16T07:36:34.506Z,1.70
2023-02-16T07:39:05.872Z,1.60
2023-02-16T07:41:45.288Z,1.60
2023-02-16T07:44:19.336Z,1.48
2023-02-16T07:46:52.560Z,1.40
2023-02-16T07:49:20.772Z,1.63
2023-02-16T07:51:57.119Z,1.60
2023-02-16T07:54:25.647Z,1.60
2023-02-16T07:56:57.899Z,1.60
2023-02-16T07:59:26.237Z,1.67
2023-02-16T08:01:54.976Z,1.50
2023-02-16T08:04:23.500Z,2.55
2023-02-16T08:06:55.118Z,2.20
2023-02-16T08:11:54.261Z,1.60
2023-02-16T08:14:22.493Z,1.45
2023-02-16T08:16:54.152Z,1.30
2023-02-16T08:19:23.792Z,1.33
2023-02-16T08:21:55.587Z,1.42
2023-02-16T08:24:25.874Z,1.30
2023-02-16T08:27:00.538Z,1.52
2023-02-16T08:29:29.050Z,1.70
2023-02-16T08:32:04.751Z,1.50
2023-02-16T08:34:35.995Z,1.00
2023-02-16T08:37:13.495Z,1.17
2023-02-16T08:39:44.859Z,1.17
2023-02-16T08:42:18.647Z,1.27
2023-02-16T08:44:49.804Z,1.08
2023-02-16T08:47:20.983Z,1.50
2023-02-16T08:49:49.326Z,1.15
2023-02-16T08:52:20.650Z,1.20
2023-02-16T08:54:49.356Z,1.08
2023-02-16T08:57:20.928Z,1.05
2023-02-16T09:00:12.004Z,1.27
2023-02-16T09:02:41.165Z,1.57
2023-02-16T09:05:15.891Z,1.13
2023-02-16T09:07:46.825Z,1.13
2023-02-16T09:10:18.487Z,1.10
2023-02-16T09:15:19.220Z,1.40
2023-02-16T09:17:47.967Z,1.20
2023-02-16T09:20:21.288Z,1.08
2023-02-16T09:22:49.527Z,1.40
2023-02-16T09:25:18.174Z,0.90
2023-02-16T09:27:49.120Z,1.00
2023-02-16T09:30:20.118Z,1.08
2023-02-16T09:32:48.430Z,1.90
2023-02-16T09:35:16.812Z,1.20
2023-02-16T09:37:47.598Z,1.92
2023-02-16T09:40:18.490Z,1.30
2023-02-16T09:43:18.295Z,1.00
2023-02-16T09:48:49.769Z,1.25
2023-02-16T09:51:47.332Z,1.10
2023-02-16T09:54:47.104Z,1.10
2023-02-16T09:57:25.939Z,1.75
2023-02-16T10:00:39.264Z,1.10
2023-02-16T10:03:29.856Z,1.00
2023-02-16T10:06:25.633Z,0.90
2023-02-16T10:09:12.585Z,1.02
2023-02-16T10:11:47.861Z,1.20
2023-02-16T10:14:18.848Z,1.10
2023-02-16T10:17:11.409Z,1.25
2023-02-16T10:19:48.343Z,1.10
2023-02-16T10:22:40.067Z,1.17
2023-02-16T10:25:27.380Z,1.05
2023-02-16T10:28:40.196Z,1.10
2023-02-16T10:31:34.670Z,1.00
2023-02-16T10:34:27.721Z,0.93
2023-02-16T10:37:27.226Z,1.38
2023-02-16T10:40:15.652Z,0.70
2023-02-16T10:42:54.390Z,0.90
2023-02-16T10:46:02.871Z,1.10
2023-02-16T10:48:35.340Z,1.05
2023-02-16T10:51:05.871Z,1.08
2023-02-16T10:53:55.788Z,1.13
2023-02-16T10:56:48.479Z,0.88
2023-02-16T10:59:32.647Z,0.93
2023-02-16T11:02:02.441Z,0.80
2023-02-16T11:04:44.883Z,0.90
2023-02-16T11:07:23.185Z,1.20
2023-02-16T11:09:56.359Z,1.00
2023-02-16T11:12:25.527Z,0.95
2023-02-16T11:15:06.797Z,1.00
2023-02-16T11:17:51.018Z,0.90
2023-02-16T11:20:52.767Z,0.90
2023-02-16T11:23:39.585Z,0.88
2023-02-16T11:26:16.566Z,0.90
2023-02-16T11:28:48.670Z,1.65
2023-02-16T11:31:32.640Z,1.42
2023-02-16T11:34:06.296Z,1.67
2023-02-16T11:36:38.555Z,1.15
2023-02-16T11:39:21.565Z,1.67
2023-02-16T11:42:19.701Z,0.70
2023-02-16T11:44:55.636Z,0.85
2023-02-16T11:47:44.366Z,0.80
2023-02-16T11:50:32.482Z,0.93
2023-02-16T11:53:13.547Z,0.80
2023-02-16T11:55:52.285Z,0.80
2023-02-16T11:58:36.214Z,0.77
2023-02-16T12:01:25.199Z,0.88
2023-02-16T12:04:27.409Z,0.75
2023-02-16T12:10:17.673Z,1.05
2023-02-16T12:13:03.893Z,0.95
2023-02-16T12:15:46.231Z,1.08
2023-02-16T12:18:45.192Z,1.08
2023-02-16T12:21:35.187Z,0.90
2023-02-16T12:24:40.075Z,0.88
2023-02-16T12:27:34.155Z,0.80
2023-02-16T12:30:29.187Z,0.77
2023-02-16T12:33:15.122Z,0.80
2023-02-16T12:35:46.865Z,0.85
2023-02-16T12:41:06.173Z,1.10
2023-02-16T12:43:48.703Z,0.95
2023-02-16T12:46:27.891Z,1.25
2023-02-16T12:49:22.392Z,0.98
2023-02-16T12:51:54.451Z,0.98
2023-02-16T12:54:41.648Z,0.90
2023-02-16T12:57:18.315Z,0.80
2023-02-16T13:00:06.695Z,0.90
2023-02-16T13:02:45.609Z,1.00
2023-02-16T13:05:24.974Z,0.80
2023-02-16T13:08:04.060Z,0.93
2023-02-16T13:10:43.639Z,0.93
2023-02-16T13:13:22.513Z,1.02
2023-02-16T13:15:58.553Z,1.10
2023-02-16T13:18:40.036Z,1.17
2023-02-16T13:21:39.694Z,0.98
2023-02-16T13:27:22.814Z,1.00
2023-02-16T13:30:13.352Z,0.90
2023-02-16T13:33:03.094Z,0.90
2023-02-16T13:35:36.928Z,0.90
2023-02-16T13:39:04.438Z,1.20
2023-02-16T13:45:14.413Z,1.02
2023-02-16T13:47:43.438Z,1.00
2023-02-16T13:50:24.640Z,1.40
2023-02-16T13:52:54.896Z,0.80
2023-02-16T13:55:31.664Z,1.00
2023-02-16T13:58:09.064Z,1.20
2023-02-16T14:00:43.079Z,1.27
2023-02-16T14:03:18.491Z,0.98
2023-02-16T14:06:15.144Z,0.95
2023-02-16T14:08:44.503Z,1.05
2023-02-16T14:11:13.106Z,1.33
2023-02-16T14:13:44.107Z,0.98
2023-02-16T14:16:15.505Z,0.98
2023-02-16T14:18:55.791Z,1.00
2023-02-16T14:21:45.220Z,1.27
2023-02-16T14:24:36.607Z,0.90
2023-02-16T14:27:10.568Z,1.00
2023-02-16T14:30:06.349Z,1.00
2023-02-16T14:32:40.079Z,1.65
2023-02-16T14:35:21.724Z,1.05
2023-02-16T14:38:09.880Z,1.10
2023-02-16T14:40:47.279Z,0.80
2023-02-16T14:43:26.372Z,1.20
2023-02-16T14:46:00.861Z,1.15
2023-02-16T14:49:06.104Z,1.00
2023-02-16T14:51:53.054Z,2.33
2023-02-16T14:54:27.930Z,0.93
2023-02-16T14:57:03.301Z,1.17
2023-02-16T14:59:37.321Z,1.10
2023-02-16T15:02:30.316Z,1.33
2023-02-16T15:04:59.228Z,1.55
2023-02-16T15:07:32.591Z,1.45
2023-02-16T15:10:05.195Z,2.05
2023-02-16T15:12:34.948Z,1.85
2023-02-16T15:17:57.457Z,1.95
2023-02-16T15:20:40.958Z,1.58
2023-02-16T15:27:22.319Z,1.35
2023-02-16T15:30:16.394Z,1.58
2023-02-16T15:33:14.075Z,1.80
2023-02-16T15:35:45.164Z,1.58
2023-02-16T15:38:19.284Z,1.70
2023-02-16T15:40:47.933Z,1.50
2023-02-16T15:43:33.276Z,1.50
2023-02-16T15:46:04.690Z,1.50
2023-02-16T15:48:43.779Z,1.65
2023-02-16T15:51:26.590Z,1.48
2023-02-16T15:54:23.622Z,2.03
2023-02-16T15:57:17.589Z,2.20
2023-02-16T15:59:54.364Z,1.50
2023-02-16T16:02:25.911Z,1.85
2023-02-16T16:05:00.091Z,1.45
2023-02-16T16:07:39.853Z,1.60
2023-02-16T16:10:25.547Z,1.60
2023-02-16T16:13:42.562Z,2.25
2023-02-16T16:16:34.783Z,2.17
2023-02-16T16:19:42.910Z,2.10
2023-02-16T16:22:43.733Z,2.03
2023-02-16T16:25:50.563Z,1.83
2023-02-16T16:31:42.567Z,1.73
2023-02-16T16:34:41.770Z,2.30
2023-02-16T16:37:37.843Z,1.77
2023-02-16T16:40:42.999Z,2.17
2023-02-16T16:43:19.695Z,1.80
2023-02-16T16:45:50.399Z,1.92
2023-02-16T16:48:26.190Z,2.10
2023-02-16T16:51:12.561Z,2.10
2023-02-16T16:54:07.328Z,2.03
2023-02-16T16:56:42.095Z,1.77
2023-02-16T16:59:10.447Z,2.00
2023-02-16T17:01:42.395Z,1.80
2023-02-16T17:04:10.804Z,1.60
2023-02-16T17:07:11.154Z,1.50
2023-02-16T17:09:42.400Z,1.60
2023-02-16T17:12:12.125Z,1.70
2023-02-16T17:14:40.685Z,1.55
2023-02-16T17:17:14.683Z,1.40
2023-02-16T17:19:43.076Z,1.55
2023-02-16T17:22:16.041Z,1.60
2023-02-16T17:25:09.232Z,2.40
2023-02-16T17:28:43.143Z,2.30
2023-02-16T17:31:12.207Z,2.20
2023-02-16T17:34:12.415Z,2.08
2023-02-16T17:37:08.992Z,1.95
2023-02-16T17:43:15.527Z,1.83
2023-02-16T17:45:44.816Z,1.63
2023-02-16T17:51:08.944Z,1.80
2023-02-16T17:54:09.654Z,2.13
2023-02-16T17:56:41.029Z,1.63
2023-02-16T18:09:11.579Z,1.95
2023-02-16T18:12:14.901Z,1.98
2023-02-16T18:15:10.962Z,1.55
2023-02-16T18:29:14.533Z,1.42
2023-02-16T18:32:11.759Z,1.65
2023-02-16T18:41:14.312Z,2.10
2023-02-16T18:44:08.516Z,1.80
2023-02-16T18:47:09.566Z,1.70
2023-02-16T18:53:09.564Z,1.60
2023-02-16T18:56:15.420Z,1.55
2023-02-16T18:59:09.739Z,1.60
2023-02-16T19:04:38.008Z,1.48
2023-02-16T19:07:09.937Z,1.02
2023-02-16T19:13:08.704Z,1.40
2023-02-16T19:15:39.965Z,1.40
2023-02-16T19:18:08.476Z,1.60
2023-02-16T19:20:39.958Z,1.83
2023-02-16T19:23:08.319Z,1.42
2023-02-16T19:25:39.575Z,1.40
2023-02-16T19:28:08.073Z,1.30
2023-02-16T19:30:39.846Z,2.03
2023-02-16T19:33:16.014Z,1.50
2023-02-16T19:35:44.397Z,1.52
2023-02-16T19:38:12.660Z,1.65
2023-02-16T19:40:41.081Z,1.42
2023-02-16T19:43:09.364Z,1.50
2023-02-16T19:45:42.088Z,1.55
2023-02-16T19:48:10.470Z,2.00
2023-02-16T19:50:39.905Z,2.35
2023-02-16T19:53:11.089Z,1.75
2023-02-16T19:58:40.126Z,1.92
2023-02-16T20:01:17.472Z,2.00
2023-02-16T20:04:03.121Z,1.73
2023-02-16T20:06:40.020Z,1.70
2023-02-16T20:09:09.104Z,2.05
2023-02-16T20:11:41.553Z,2.38
2023-02-16T20:14:10.016Z,2.05
2023-02-16T20:16:38.383Z,1.90
2023-02-16T20:19:09.673Z,2.05
2023-02-16T20:21:38.082Z,2.30
2023-02-16T20:24:09.533Z,1.60
2023-02-16T20:29:13.090Z,1.90
2023-02-16T20:32:07.781Z,1.90
2023-02-16T20:34:36.137Z,2.10
2023-02-16T20:37:10.659Z,2.10
2023-02-16T20:39:39.003Z,1.95
2023-02-16T20:42:09.255Z,2.17
2023-02-16T20:44:38.983Z,2.33
2023-02-16T20:47:11.111Z,1.88
2023-02-16T20:49:39.438Z,2.05
2023-02-16T20:52:07.788Z,1.60
2023-02-16T20:54:36.407Z,2.08
2023-02-16T20:57:07.073Z,1.45
2023-02-16T20:59:38.363Z,1.60
2023-02-16T21:02:06.930Z,2.17
2023-02-16T21:04:35.276Z,1.85
2023-02-16T21:07:03.610Z,1.92
2023-02-16T21:09:32.098Z,2.10
2023-02-16T21:12:00.521Z,1.98
2023-02-16T21:14:28.924Z,2.30
2023-02-16T21:16:58.667Z,2.08
2023-02-16T21:19:27.246Z,1.80
2023-02-16T21:21:55.751Z,2.10
2023-02-16T21:24:24.219Z,2.15
2023-02-16T21:26:52.557Z,2.00
2023-02-16T21:29:20.913Z,2.55
2023-02-16T21:31:49.515Z,2.88
2023-02-16T21:34:18.196Z,2.83
2023-02-16T21:36:46.818Z,2.05
2023-02-16T21:39:15.217Z,1.90
2023-02-16T21:41:43.941Z,2.33
2023-02-16T21:44:18.885Z,1.75
2023-02-16T21:46:48.855Z,2.30
2023-02-16T21:49:24.896Z,2.80
2023-02-16T21:51:53.434Z,3.08
2023-02-16T21:54:44.635Z,2.45
2023-02-16T21:57:16.087Z,2.80
2023-02-16T22:02:15.655Z,2.75
2023-02-16T22:04:44.581Z,3.08
2023-02-16T22:07:12.888Z,3.03
2023-02-16T22:09:41.143Z,2.40
2023-02-16T22:12:09.715Z,2.58
2023-02-16T22:14:38.814Z,2.92
2023-02-16T22:17:08.521Z,3.50
2023-02-16T22:19:39.578Z,2.90
2023-02-16T22:22:11.983Z,3.25
2023-02-16T22:24:40.287Z,3.35
2023-02-16T22:27:08.569Z,2.88
2023-02-16T22:29:39.762Z,3.45
2023-02-16T22:32:08.083Z,3.50
2023-02-16T22:34:38.905Z,3.50
2023-02-16T22:37:07.295Z,3.67
2023-02-16T22:39:35.721Z,4.10
2023-02-16T22:42:04.177Z,3.40
2023-02-16T22:44:32.561Z,3.78
2023-02-16T22:47:00.974Z,3.60
2023-02-16T22:49:34.960Z,3.33
2023-02-16T22:52:04.531Z,3.83
2023-02-16T22:54:38.620Z,3.70
2023-02-16T22:57:08.081Z,3.60
2023-02-16T22:59:36.922Z,3.55
2023-02-16T23:02:10.340Z,4.30
2023-02-16T23:04:38.655Z,3.70
2023-02-16T23:07:07.163Z,3.40
2023-02-16T23:10:13.054Z,3.53
2023-02-16T23:12:49.970Z,3.40
2023-02-16T23:15:18.422Z,3.55
2023-02-16T23:20:19.421Z,3.55
2023-02-16T23:23:09.131Z,3.58
2023-02-16T23:25:46.522Z,3.78
2023-02-16T23:28:15.864Z,4.53
2023-02-16T23:30:47.358Z,4.45
2023-02-16T23:33:30.100Z,4.28
2023-02-16T23:45:18.949Z,3.30
2023-02-16T23:48:10.546Z,2.40
2023-02-16T23:53:11.707Z,0.77
2023-02-16T23:55:43.534Z,0.90
